Greenbrier, Arkansas
Current Conditions -  °F | °C
As of 4:58 PM on Friday 28 Nov 2014 (Local Time) from KLRF Reporting Station
Clear Clear  
Wind Chill: 55°   Ceiling: Unl
Heat Index: 55°   Visibility: 10mi
Dew Point: 35°   Wind: 5mph
Humidity: 47%   Direction: 170°S
Pressure: 30.1"   Gusts: NA
Location:  35.23°N, 92.39°W
Report Text: KLRF 282258Z AUTO 17004KT 10SM CLR 13/02 A3010 RMK AO2 SLP197 T01300018 $
Loading
Personal Weather Stations






























Interactive Weather Map New forecast layout! Learn more

10-Day Weather Forecast

Advertisements
Track Severe Weather on mobile